createdAt,value
2022-11-28T00:01:27.117Z,3.50
2022-11-28T00:03:53.927Z,3.72
2022-11-28T00:06:20.993Z,3.47
2022-11-28T00:08:47.961Z,3.40
2022-11-28T00:11:16.309Z,3.50
2022-11-28T00:13:43.570Z,3.22
2022-11-28T00:16:14.992Z,3.20
2022-11-28T00:18:41.897Z,3.45
2022-11-28T00:21:11.626Z,3.40
2022-11-28T00:23:38.663Z,3.38
2022-11-28T00:26:08.658Z,3.65
2022-11-28T00:28:35.783Z,3.50
2022-11-28T00:31:03.771Z,3.70
2022-11-28T00:33:31.634Z,3.60
2022-11-28T00:36:00.177Z,3.22
2022-11-28T00:38:26.966Z,3.70
2022-11-28T00:41:18.119Z,3.40
2022-11-28T00:43:45.906Z,3.40
2022-11-28T00:46:14.193Z,3.33
2022-11-28T00:48:41.314Z,3.53
2022-11-28T00:51:11.591Z,3.30
2022-11-28T00:53:41.911Z,3.33
2022-11-28T00:56:11.071Z,3.42
2022-11-28T00:58:38.895Z,3.30
2022-11-28T01:01:11.560Z,3.22
2022-11-28T01:03:39.076Z,3.20
2022-11-28T01:06:06.780Z,3.13
2022-11-28T01:08:33.558Z,3.17
2022-11-28T01:11:00.318Z,3.65
2022-11-28T01:13:27.233Z,3.40
2022-11-28T01:15:54.039Z,3.47
2022-11-28T01:18:20.701Z,3.42
2022-11-28T01:20:47.320Z,3.50
2022-11-28T01:23:13.925Z,3.67
2022-11-28T01:25:40.534Z,3.63
2022-11-28T01:28:07.186Z,3.50
2022-11-28T01:30:33.841Z,3.60
2022-11-28T01:33:00.556Z,3.45
2022-11-28T01:35:27.626Z,3.53
2022-11-28T01:37:54.194Z,3.35
2022-11-28T01:40:21.013Z,3.35
2022-11-28T01:42:47.656Z,3.35
2022-11-28T01:45:19.698Z,3.50
2022-11-28T01:47:48.359Z,3.78
2022-11-28T01:50:16.195Z,3.65
2022-11-28T01:52:45.765Z,3.47
2022-11-28T01:55:17.271Z,3.50
2022-11-28T01:57:44.046Z,3.50
2022-11-28T02:00:14.333Z,3.70
2022-11-28T02:05:26.433Z,3.33
2022-11-28T02:07:53.908Z,3.35
2022-11-28T02:10:25.484Z,3.80
2022-11-28T02:13:09.109Z,3.97
2022-11-28T02:15:38.712Z,3.22
2022-11-28T02:18:22.958Z,3.40
2022-11-28T02:21:18.393Z,3.47
2022-11-28T02:24:03.693Z,3.33
2022-11-28T02:26:39.129Z,3.63
2022-11-28T02:29:16.614Z,3.22
2022-11-28T02:32:28.413Z,3.10
2022-11-28T02:35:02.873Z,3.30
2022-11-28T02:37:54.967Z,3.58
2022-11-28T02:40:44.299Z,3.50
2022-11-28T02:43:20.550Z,3.88
2022-11-28T02:46:01.944Z,3.70
2022-11-28T02:48:47.371Z,3.35
2022-11-28T02:51:24.731Z,3.33
2022-11-28T02:53:53.258Z,3.40
2022-11-28T02:56:19.931Z,3.67
2022-11-28T02:58:46.494Z,3.40
2022-11-28T03:01:20.911Z,3.40
2022-11-28T03:04:06.318Z,3.53
2022-11-28T03:06:49.425Z,3.67
2022-11-28T03:09:24.883Z,3.60
2022-11-28T03:12:13.460Z,3.47
2022-11-28T03:14:55.536Z,3.35
2022-11-28T03:17:38.262Z,3.58
2022-11-28T03:20:21.635Z,3.40
2022-11-28T03:22:57.021Z,3.58
2022-11-28T03:25:35.953Z,3.53
2022-11-28T03:28:09.087Z,3.33
2022-11-28T03:30:48.283Z,3.17
2022-11-28T03:33:17.794Z,3.40
2022-11-28T03:35:54.622Z,3.33
2022-11-28T03:38:29.616Z,3.60
2022-11-28T03:41:01.849Z,3.70
2022-11-28T03:43:36.452Z,3.53
2022-11-28T03:46:08.459Z,3.58
2022-11-28T03:48:40.024Z,3.80
2022-11-28T03:51:20.547Z,3.60
2022-11-28T03:57:10.457Z,3.60
2022-11-28T03:59:46.782Z,3.50
2022-11-28T04:02:36.222Z,4.00
2022-11-28T04:05:36.321Z,3.60
2022-11-28T04:08:17.946Z,3.63
2022-11-28T04:11:12.770Z,3.83
2022-11-28T04:13:53.804Z,4.00
2022-11-28T04:16:37.773Z,4.15
2022-11-28T04:19:22.911Z,4.35
2022-11-28T04:21:57.041Z,3.97
2022-11-28T04:24:29.599Z,4.15
2022-11-28T04:27:02.723Z,4.30
2022-11-28T04:29:34.773Z,4.00
2022-11-28T04:32:03.456Z,4.00
2022-11-28T04:34:33.081Z,4.07
2022-11-28T04:37:05.496Z,4.30
2022-11-28T04:39:37.543Z,4.03
2022-11-28T04:42:13.283Z,3.83
2022-11-28T04:44:58.486Z,3.95
2022-11-28T04:47:25.801Z,4.00
2022-11-28T04:49:53.599Z,4.15
2022-11-28T04:52:55.133Z,4.30
2022-11-28T04:55:52.354Z,3.83
2022-11-28T04:58:34.193Z,4.15
2022-11-28T05:01:04.815Z,4.30
2022-11-28T05:03:32.103Z,4.13
2022-11-28T05:05:58.745Z,4.35
2022-11-28T05:08:25.415Z,4.40
2022-11-28T05:10:52.050Z,4.38
2022-11-28T05:13:18.711Z,5.07
2022-11-28T05:15:45.516Z,4.25
2022-11-28T05:18:12.135Z,4.60
2022-11-28T05:20:39.264Z,4.50
2022-11-28T05:23:06.572Z,4.25
2022-11-28T05:25:33.234Z,4.40
2022-11-28T05:28:00.224Z,4.43
2022-11-28T05:30:26.882Z,4.50
2022-11-28T05:32:53.597Z,4.40
2022-11-28T05:35:20.100Z,4.55
2022-11-28T05:37:49.621Z,4.90
2022-11-28T05:40:16.563Z,4.80
2022-11-28T05:42:43.087Z,4.60
2022-11-28T05:45:10.067Z,4.88
2022-11-28T05:47:36.711Z,4.80
2022-11-28T05:50:03.780Z,4.57
2022-11-28T05:52:32.266Z,4.57
2022-11-28T05:55:00.301Z,4.05
2022-11-28T05:57:29.857Z,4.60
2022-11-28T05:59:56.834Z,3.97
2022-11-28T06:02:23.940Z,4.13
2022-11-28T06:04:50.804Z,4.30
2022-11-28T06:07:18.808Z,4.47
2022-11-28T06:09:46.271Z,4.38
2022-11-28T06:12:13.301Z,4.38
2022-11-28T06:14:40.219Z,4.55
2022-11-28T06:17:07.036Z,4.10
2022-11-28T06:19:33.863Z,4.38
2022-11-28T06:22:00.723Z,3.97
2022-11-28T06:24:27.540Z,4.35
2022-11-28T06:26:55.213Z,4.00
2022-11-28T06:29:22.488Z,4.28
2022-11-28T06:31:49.255Z,3.88
2022-11-28T06:34:16.382Z,4.03
2022-11-28T06:36:43.475Z,4.38
2022-11-28T06:39:13.643Z,4.35
2022-11-28T06:41:40.331Z,4.70
2022-11-28T06:44:07.423Z,5.10
2022-11-28T06:46:34.000Z,5.00
2022-11-28T06:49:00.615Z,5.38
2022-11-28T06:51:27.330Z,5.07
2022-11-28T06:53:54.171Z,5.40
2022-11-28T06:56:21.683Z,4.93
2022-11-28T06:58:55.060Z,5.05
2022-11-28T07:01:27.083Z,5.30
2022-11-28T07:03:54.579Z,5.18
2022-11-28T07:06:22.696Z,4.97
2022-11-28T07:08:50.238Z,4.95
2022-11-28T07:11:23.459Z,4.95
2022-11-28T07:13:50.654Z,5.10
2022-11-28T07:16:20.844Z,5.05
2022-11-28T07:18:47.841Z,4.85
2022-11-28T07:21:15.210Z,4.93
2022-11-28T07:23:44.110Z,4.78
2022-11-28T07:26:13.013Z,5.18
2022-11-28T07:28:39.919Z,5.03
2022-11-28T07:31:15.837Z,5.35
2022-11-28T07:33:44.617Z,5.38
2022-11-28T07:36:20.438Z,5.20
2022-11-28T07:38:52.181Z,5.60
2022-11-28T07:41:23.635Z,5.78
2022-11-28T07:43:59.222Z,5.70
2022-11-28T07:46:27.153Z,5.70
2022-11-28T07:48:53.895Z,5.95
2022-11-28T07:51:24.666Z,5.90
2022-11-28T07:53:51.761Z,5.07
2022-11-28T07:56:24.824Z,5.20
2022-11-28T07:58:51.714Z,5.38
2022-11-28T08:01:21.324Z,5.70
2022-11-28T08:03:48.201Z,6.20
2022-11-28T08:06:16.700Z,5.68
2022-11-28T08:08:45.522Z,5.47
2022-11-28T08:11:12.191Z,5.00
2022-11-28T08:13:39.823Z,5.43
2022-11-28T08:16:08.926Z,5.35
2022-11-28T08:18:36.347Z,5.43
2022-11-28T08:21:08.433Z,5.22
2022-11-28T08:23:36.171Z,5.70
2022-11-28T08:26:04.913Z,5.40
2022-11-28T08:28:32.098Z,5.28
2022-11-28T08:31:01.486Z,6.00
2022-11-28T08:33:28.201Z,5.70
2022-11-28T08:35:54.855Z,5.93
2022-11-28T08:38:21.522Z,6.38
2022-11-28T08:40:50.807Z,7.18
2022-11-28T08:43:17.481Z,7.43
2022-11-28T08:45:44.910Z,7.85
2022-11-28T08:48:11.586Z,7.63
2022-11-28T08:50:38.214Z,7.80
2022-11-28T08:53:08.103Z,8.15
2022-11-28T08:55:40.524Z,7.15
2022-11-28T08:58:08.584Z,8.02
2022-11-28T09:00:35.441Z,7.50
2022-11-28T09:03:02.326Z,7.75
2022-11-28T09:05:30.168Z,7.45
2022-11-28T09:07:57.054Z,6.78
2022-11-28T09:10:25.023Z,7.28
2022-11-28T09:12:52.406Z,7.15
2022-11-28T09:15:19.260Z,6.20
2022-11-28T09:17:46.360Z,6.78
2022-11-28T09:20:13.335Z,6.68
2022-11-28T09:22:42.584Z,6.53
2022-11-28T09:25:09.404Z,6.70
2022-11-28T09:27:35.991Z,6.85
2022-11-28T09:30:02.792Z,6.38
2022-11-28T09:32:29.395Z,6.00
2022-11-28T09:34:56.082Z,6.45
2022-11-28T09:37:22.826Z,6.30
2022-11-28T09:40:12.012Z,6.38
2022-11-28T09:42:44.906Z,6.68
2022-11-28T09:45:17.265Z,6.20
2022-11-28T09:47:47.901Z,6.32
2022-11-28T09:50:20.923Z,6.25
2022-11-28T09:53:05.938Z,6.80
2022-11-28T09:55:40.970Z,6.93
2022-11-28T09:58:16.224Z,6.47
2022-11-28T10:01:15.922Z,6.68
2022-11-28T10:04:14.826Z,6.55
2022-11-28T10:17:04.240Z,5.13
2022-11-28T10:19:57.577Z,5.68
2022-11-28T10:25:00.714Z,5.57
2022-11-28T10:27:34.921Z,5.28
2022-11-28T10:30:15.551Z,5.70
2022-11-28T10:35:28.627Z,5.45
2022-11-28T10:37:55.534Z,5.25
2022-11-28T10:40:41.248Z,6.00
2022-11-28T10:43:30.504Z,5.88
2022-11-28T10:46:12.498Z,6.03
2022-11-28T10:48:41.893Z,5.80
2022-11-28T10:51:17.509Z,5.63
2022-11-28T10:54:00.814Z,6.22
2022-11-28T10:56:51.170Z,6.10
2022-11-28T10:59:29.677Z,6.32
2022-11-28T11:01:58.230Z,5.68
2022-11-28T11:04:27.725Z,5.68
2022-11-28T11:07:14.893Z,5.80
2022-11-28T11:09:45.392Z,5.43
2022-11-28T11:12:20.622Z,5.78
2022-11-28T11:14:47.579Z,5.70
2022-11-28T11:17:36.727Z,5.75
2022-11-28T11:20:26.133Z,5.55
2022-11-28T11:23:13.357Z,5.97
2022-11-28T11:26:10.243Z,6.40
2022-11-28T11:28:50.334Z,6.03
2022-11-28T11:31:27.245Z,5.70
2022-11-28T11:34:03.426Z,5.93
2022-11-28T11:36:33.159Z,6.07
2022-11-28T11:39:12.472Z,5.80
2022-11-28T11:41:47.554Z,6.22
2022-11-28T11:44:14.184Z,6.40
2022-11-28T11:47:05.630Z,6.05
2022-11-28T11:49:39.782Z,6.20
2022-11-28T11:52:22.915Z,6.32
2022-11-28T11:54:52.577Z,5.90
2022-11-28T11:57:37.664Z,6.33
2022-11-28T12:00:18.738Z,5.97
2022-11-28T12:02:59.948Z,6.63
2022-11-28T12:05:41.784Z,6.50
2022-11-28T12:08:36.011Z,6.57
2022-11-28T12:11:29.677Z,6.55
2022-11-28T12:14:03.227Z,6.78
2022-11-28T12:17:10.515Z,6.68
2022-11-28T12:19:55.236Z,6.45
2022-11-28T12:22:30.809Z,6.45
2022-11-28T12:25:09.354Z,6.45
2022-11-28T12:27:57.589Z,6.55
2022-11-28T12:30:27.078Z,6.32
2022-11-28T12:33:07.027Z,6.68
2022-11-28T12:35:42.435Z,6.50
2022-11-28T12:38:56.933Z,6.60
2022-11-28T12:41:46.642Z,6.53
2022-11-28T12:44:38.037Z,6.40
2022-11-28T12:47:26.083Z,6.68
2022-11-28T12:50:08.141Z,6.68
2022-11-28T12:52:41.455Z,6.78
2022-11-28T12:55:31.642Z,6.60
2022-11-28T12:58:10.826Z,6.45
2022-11-28T13:00:54.012Z,6.25
2022-11-28T13:03:28.621Z,6.55
2022-11-28T13:06:16.573Z,5.88
2022-11-28T13:08:56.252Z,5.50
2022-11-28T13:11:47.582Z,5.50
2022-11-28T13:14:23.060Z,5.57
2022-11-28T13:16:52.324Z,5.65
2022-11-28T13:19:48.609Z,5.22
2022-11-28T13:22:23.737Z,6.28
2022-11-28T13:25:00.878Z,5.03
2022-11-28T13:27:36.787Z,5.20
2022-11-28T13:30:23.884Z,5.10
2022-11-28T13:33:01.310Z,4.70
2022-11-28T13:35:29.279Z,5.03
2022-11-28T13:41:52.623Z,4.63
2022-11-28T13:44:23.021Z,4.68
2022-11-28T13:46:51.515Z,4.70
2022-11-28T13:49:27.682Z,4.43
2022-11-28T13:52:18.893Z,4.90
2022-11-28T13:54:55.321Z,4.70
2022-11-28T13:57:29.675Z,4.72
2022-11-28T14:00:04.520Z,5.13
2022-11-28T14:02:45.384Z,4.90
2022-11-28T14:05:27.414Z,4.88
2022-11-28T14:07:56.392Z,5.38
2022-11-28T14:10:45.044Z,5.07
2022-11-28T14:13:30.898Z,4.78
2022-11-28T14:16:19.814Z,5.28
2022-11-28T14:19:28.238Z,5.13
2022-11-28T14:22:17.075Z,4.93
2022-11-28T14:25:24.091Z,4.28
2022-11-28T14:27:58.794Z,5.20
2022-11-28T14:30:28.441Z,4.45
2022-11-28T14:32:58.402Z,4.40
2022-11-28T14:35:50.540Z,5.15
2022-11-28T14:38:30.082Z,5.60
2022-11-28T14:41:03.096Z,5.20
2022-11-28T14:43:31.291Z,5.35
2022-11-28T14:46:16.127Z,6.43
2022-11-28T14:48:58.189Z,4.63
2022-11-28T14:52:09.824Z,3.83
2022-11-28T14:54:44.424Z,2.80
2022-11-28T14:57:21.818Z,3.10
2022-11-28T14:59:50.173Z,3.22
2022-11-28T15:02:23.442Z,2.90
2022-11-28T15:05:18.768Z,2.85
2022-11-28T15:08:13.833Z,2.45
2022-11-28T15:11:02.804Z,2.35
2022-11-28T15:14:02.445Z,2.58
2022-11-28T15:16:31.936Z,2.90
2022-11-28T15:19:08.081Z,2.45
2022-11-28T15:21:46.707Z,2.60
2022-11-28T15:24:32.608Z,2.50
2022-11-28T15:27:19.105Z,2.20
2022-11-28T15:30:00.172Z,2.33
2022-11-28T15:32:29.856Z,2.00
2022-11-28T15:35:03.063Z,2.10
2022-11-28T15:37:34.317Z,2.03
2022-11-28T15:40:04.352Z,2.03
2022-11-28T15:42:33.947Z,1.83
2022-11-28T15:45:19.654Z,2.10
2022-11-28T15:47:48.248Z,2.10
2022-11-28T15:50:18.271Z,2.00
2022-11-28T15:52:58.001Z,1.80
2022-11-28T15:55:29.609Z,2.00
2022-11-28T15:58:30.728Z,2.10
2022-11-28T16:01:26.791Z,2.30
2022-11-28T16:03:59.264Z,2.30
2022-11-28T16:06:32.634Z,2.20
2022-11-28T16:09:04.068Z,2.20
2022-11-28T16:11:32.638Z,2.20
2022-11-28T16:14:06.563Z,2.30
2022-11-28T16:16:36.820Z,2.10
2022-11-28T16:19:08.278Z,2.35
2022-11-28T16:21:43.763Z,2.17
2022-11-28T16:24:27.553Z,2.42
2022-11-28T16:27:01.862Z,2.15
2022-11-28T16:29:34.697Z,2.30
2022-11-28T16:32:40.758Z,2.20
2022-11-28T16:35:12.604Z,2.17
2022-11-28T16:37:39.872Z,2.33
2022-11-28T16:40:14.649Z,2.40
2022-11-28T16:42:41.579Z,2.30
2022-11-28T16:45:11.605Z,2.55
2022-11-28T16:47:39.821Z,2.47
2022-11-28T16:50:15.352Z,2.33
2022-11-28T16:52:49.898Z,2.58
2022-11-28T16:55:28.646Z,2.65
2022-11-28T16:58:07.368Z,2.28
2022-11-28T17:00:36.794Z,2.70
2022-11-28T17:03:04.153Z,2.30
2022-11-28T17:05:31.556Z,2.38
2022-11-28T17:07:58.702Z,2.92
2022-11-28T17:10:25.902Z,2.50
2022-11-28T17:12:52.726Z,2.50
2022-11-28T17:15:21.868Z,2.20
2022-11-28T17:17:51.600Z,2.30
2022-11-28T17:20:18.275Z,2.40
2022-11-28T17:22:47.935Z,2.08
2022-11-28T17:25:19.880Z,2.35
2022-11-28T17:27:50.630Z,2.28
2022-11-28T17:30:19.788Z,2.50
2022-11-28T17:32:51.874Z,2.30
2022-11-28T17:35:25.100Z,2.50
2022-11-28T17:37:51.846Z,2.25
2022-11-28T17:40:33.633Z,2.10
2022-11-28T17:43:01.298Z,2.30
2022-11-28T17:45:31.660Z,2.30
2022-11-28T17:47:58.817Z,1.80
2022-11-28T17:50:27.522Z,2.20
2022-11-28T17:52:54.512Z,2.10
2022-11-28T17:55:22.231Z,2.10
2022-11-28T17:57:48.955Z,2.05
2022-11-28T18:00:16.967Z,2.17
2022-11-28T18:02:45.917Z,1.98
2022-11-28T18:05:12.971Z,2.00
2022-11-28T18:07:41.501Z,2.00
2022-11-28T18:10:11.305Z,2.00
2022-11-28T18:12:39.438Z,2.00
2022-11-28T18:15:12.811Z,2.00
2022-11-28T18:17:39.541Z,1.92
2022-11-28T18:20:07.696Z,1.80
2022-11-28T18:22:34.701Z,1.83
2022-11-28T18:25:02.738Z,1.92
2022-11-28T18:27:29.590Z,2.40
2022-11-28T18:29:56.677Z,2.70
2022-11-28T18:32:23.510Z,2.67
2022-11-28T18:34:53.042Z,3.00
2022-11-28T18:37:20.851Z,2.85
2022-11-28T18:39:47.786Z,2.65
2022-11-28T18:42:14.793Z,3.17
2022-11-28T18:44:42.944Z,2.90
2022-11-28T18:47:09.592Z,2.90
2022-11-28T18:49:36.261Z,3.05
2022-11-28T18:52:03.188Z,2.67
2022-11-28T18:54:31.101Z,2.65
2022-11-28T18:56:58.094Z,2.60
2022-11-28T18:59:25.136Z,2.90
2022-11-28T19:01:52.902Z,3.00
2022-11-28T19:04:19.704Z,3.08
2022-11-28T19:06:48.355Z,3.10
2022-11-28T19:09:17.457Z,3.28
2022-11-28T19:11:44.830Z,2.90
2022-11-28T19:14:18.783Z,3.13
2022-11-28T19:16:49.313Z,3.17
2022-11-28T19:19:20.329Z,3.58
2022-11-28T19:21:48.758Z,3.63
2022-11-28T19:24:15.860Z,3.55
2022-11-28T19:26:42.521Z,3.60
2022-11-28T19:29:09.640Z,3.65
2022-11-28T19:31:39.616Z,3.75
2022-11-28T19:34:14.961Z,3.70
2022-11-28T19:36:44.987Z,3.40
2022-11-28T19:39:30.136Z,3.65
2022-11-28T19:41:57.383Z,3.40
2022-11-28T19:44:24.792Z,3.65
2022-11-28T19:46:54.385Z,3.80
2022-11-28T19:49:23.423Z,3.90
2022-11-28T19:51:51.095Z,3.90
2022-11-28T19:54:19.771Z,3.67
2022-11-28T19:56:48.000Z,4.35
2022-11-28T19:59:14.968Z,3.85
2022-11-28T20:01:42.987Z,4.00
2022-11-28T20:04:10.471Z,3.50
2022-11-28T20:06:37.962Z,3.70
2022-11-28T20:09:08.886Z,3.80
2022-11-28T20:11:39.879Z,3.70
2022-11-28T20:14:19.705Z,3.67
2022-11-28T20:16:49.141Z,3.80
2022-11-28T20:19:17.956Z,3.87
2022-11-28T20:21:46.082Z,3.50
2022-11-28T20:24:15.794Z,3.80
2022-11-28T20:26:44.574Z,3.40
2022-11-28T20:29:14.805Z,3.60
2022-11-28T20:31:47.629Z,3.75
2022-11-28T20:34:18.110Z,3.63
2022-11-28T20:36:51.138Z,3.65
2022-11-28T20:39:18.433Z,3.58
2022-11-28T20:41:46.197Z,3.50
2022-11-28T20:44:12.967Z,2.92
2022-11-28T20:46:44.100Z,3.33
2022-11-28T20:49:11.171Z,3.53
2022-11-28T20:51:37.878Z,3.35
2022-11-28T20:54:06.117Z,3.40
2022-11-28T20:56:58.018Z,2.97
2022-11-28T20:59:23.653Z,3.53
2022-11-28T21:01:50.571Z,3.25
2022-11-28T21:04:18.300Z,3.05
2022-11-28T21:06:47.264Z,3.67
2022-11-28T21:09:15.177Z,3.20
2022-11-28T21:11:57.009Z,3.47
2022-11-28T21:14:25.920Z,3.50
2022-11-28T21:16:52.639Z,3.20
2022-11-28T21:19:19.419Z,2.90
2022-11-28T21:21:46.257Z,2.83
2022-11-28T21:24:14.048Z,2.90
2022-11-28T21:26:45.376Z,2.70
2022-11-28T21:29:16.593Z,3.13
2022-11-28T21:31:45.003Z,2.90
2022-11-28T21:34:16.870Z,3.08
2022-11-28T21:36:44.562Z,2.85
2022-11-28T21:39:18.568Z,2.70
2022-11-28T21:41:46.241Z,2.50
2022-11-28T21:44:12.935Z,2.50
2022-11-28T21:46:39.897Z,2.28
2022-11-28T21:49:06.805Z,2.70
2022-11-28T21:51:37.866Z,2.30
2022-11-28T21:54:04.675Z,2.30
2022-11-28T21:56:31.465Z,2.40
2022-11-28T21:58:58.338Z,2.38
2022-11-28T22:01:25.099Z,2.33
2022-11-28T22:03:53.555Z,2.22
2022-11-28T22:06:25.160Z,2.20
2022-11-28T22:08:53.834Z,2.28
2022-11-28T22:11:22.845Z,2.30
2022-11-28T22:13:50.828Z,2.40
2022-11-28T22:16:20.571Z,2.20
2022-11-28T22:18:50.554Z,2.20
2022-11-28T22:24:06.223Z,2.45
2022-11-28T22:26:34.061Z,2.28
2022-11-28T22:29:04.079Z,2.70
2022-11-28T22:31:31.918Z,2.80
2022-11-28T22:33:58.938Z,3.00
2022-11-28T22:36:25.702Z,3.05
2022-11-28T22:38:58.984Z,3.28
2022-11-28T22:41:29.224Z,3.45
2022-11-28T22:44:01.154Z,3.55
2022-11-28T22:46:30.309Z,3.30
2022-11-28T22:49:02.065Z,3.60
2022-11-28T22:51:30.374Z,3.90
2022-11-28T22:54:00.271Z,3.50
2022-11-28T22:56:30.048Z,3.50
2022-11-28T22:58:58.093Z,3.50
2022-11-28T23:01:27.390Z,3.33
2022-11-28T23:03:55.421Z,3.67
2022-11-28T23:06:28.874Z,3.50
2022-11-28T23:09:00.186Z,3.55
2022-11-28T23:11:30.319Z,4.03
2022-11-28T23:13:58.506Z,3.83
2022-11-28T23:16:28.937Z,3.42
2022-11-28T23:18:59.040Z,3.70
2022-11-28T23:21:30.366Z,3.50
2022-11-28T23:23:57.333Z,3.75
2022-11-28T23:26:27.637Z,3.40
2022-11-28T23:28:54.695Z,3.28
2022-11-28T23:31:26.207Z,3.50
2022-11-28T23:33:54.974Z,3.10
2022-11-28T23:36:25.867Z,3.17
2022-11-28T23:38:56.494Z,3.10
2022-11-28T23:41:24.590Z,2.65
2022-11-28T23:43:51.360Z,3.50
2022-11-28T23:46:19.893Z,3.08
2022-11-28T23:48:47.217Z,3.40
2022-11-28T23:51:15.207Z,3.35
2022-11-28T23:53:42.425Z,3.20
2022-11-28T23:56:36.355Z,3.15
2022-11-28T23:59:06.723Z,2.72
